createdAt,value
2022-08-05T00:02:54.353Z,28.50
2022-08-05T00:06:05.446Z,28.33
2022-08-05T00:09:20.779Z,28.02
2022-08-05T00:12:24.059Z,28.26
2022-08-05T00:15:55.202Z,28.55
2022-08-05T00:18:51.070Z,28.54
2022-08-05T00:21:44.715Z,28.33
2022-08-05T00:24:48.254Z,28.05
2022-08-05T00:27:58.276Z,28.43
2022-08-05T00:31:04.293Z,28.28
2022-08-05T00:34:57.052Z,28.44
2022-08-05T00:37:50.283Z,28.37
2022-08-05T00:40:58.117Z,28.14
2022-08-05T00:44:03.309Z,28.12
2022-08-05T00:47:06.500Z,28.19
2022-08-05T00:50:15.259Z,28.16
2022-08-05T00:54:00.362Z,28.14
2022-08-05T00:56:51.552Z,28.11
2022-08-05T00:59:54.991Z,28.11
2022-08-05T01:02:59.813Z,27.94
2022-08-05T01:06:05.459Z,27.61
2022-08-05T01:09:08.948Z,27.53
2022-08-05T01:12:18.418Z,27.55
2022-08-05T01:15:35.445Z,27.42
2022-08-05T01:18:47.980Z,27.16
2022-08-05T01:22:23.864Z,27.36
2022-08-05T01:25:40.888Z,27.59
2022-08-05T01:29:04.228Z,27.69
2022-08-05T01:32:12.473Z,27.63
2022-08-05T01:35:52.192Z,27.47
2022-08-05T01:38:41.910Z,27.53
2022-08-05T01:41:46.881Z,27.52
2022-08-05T01:44:53.836Z,27.51
2022-08-05T01:47:58.151Z,27.39
2022-08-05T01:51:11.949Z,27.38
2022-08-05T01:54:17.965Z,27.20
2022-08-05T01:58:09.773Z,27.13
2022-08-05T02:00:53.359Z,26.90
2022-08-05T02:03:58.342Z,27.06
2022-08-05T02:07:03.405Z,27.10
2022-08-05T02:10:09.771Z,27.16
2022-08-05T02:13:28.157Z,26.99
2022-08-05T02:16:52.473Z,27.07
2022-08-05T02:20:00.532Z,26.90
2022-08-05T02:23:10.822Z,26.85
2022-08-05T02:26:21.989Z,26.94
2022-08-05T02:29:58.973Z,27.05
2022-08-05T02:32:53.640Z,26.83
2022-08-05T02:36:00.678Z,26.81
2022-08-05T02:39:08.842Z,26.76
2022-08-05T02:42:25.736Z,26.67
2022-08-05T02:45:52.471Z,26.67
2022-08-05T02:48:54.824Z,26.48
2022-08-05T02:52:03.122Z,26.53
2022-08-05T02:55:10.928Z,26.35
2022-08-05T02:58:17.211Z,26.62
2022-08-05T03:01:27.086Z,26.51
2022-08-05T03:04:30.567Z,26.44
2022-08-05T03:08:00.435Z,26.66
2022-08-05T03:11:55.560Z,26.40
2022-08-05T03:14:21.165Z,26.06
2022-08-05T03:17:25.101Z,26.38
2022-08-05T03:20:28.525Z,26.57
2022-08-05T03:23:32.239Z,26.43
2022-08-05T03:26:39.259Z,26.45
2022-08-05T03:29:46.018Z,26.56
2022-08-05T03:33:07.928Z,26.46
2022-08-05T03:36:12.260Z,26.17
2022-08-05T03:39:20.377Z,26.23
2022-08-05T03:42:32.421Z,26.11
2022-08-05T03:45:58.339Z,26.01
2022-08-05T03:49:05.271Z,26.34
2022-08-05T03:52:48.460Z,26.20
2022-08-05T03:56:05.686Z,26.43
2022-08-05T03:59:04.012Z,26.36
2022-08-05T04:02:14.691Z,26.14
2022-08-05T04:05:20.910Z,26.00
2022-08-05T04:08:30.242Z,26.14
2022-08-05T04:11:47.593Z,26.14
2022-08-05T04:14:57.571Z,26.30
2022-08-05T04:18:07.986Z,26.40
2022-08-05T04:21:13.322Z,26.40
2022-08-05T04:24:36.376Z,26.36
2022-08-05T04:27:57.218Z,26.21
2022-08-05T04:31:02.286Z,26.29
2022-08-05T04:34:31.204Z,26.30
2022-08-05T04:38:02.724Z,26.10
2022-08-05T04:40:58.801Z,26.22
2022-08-05T04:44:08.830Z,26.08
2022-08-05T04:47:20.445Z,26.28
2022-08-05T04:50:37.136Z,26.31
2022-08-05T04:53:40.953Z,26.27
2022-08-05T04:56:44.967Z,26.13
2022-08-05T04:59:48.249Z,26.17
2022-08-05T05:02:51.758Z,25.92
2022-08-05T05:06:38.752Z,25.79
2022-08-05T05:09:18.455Z,25.83
2022-08-05T05:12:22.258Z,25.85
2022-08-05T05:15:56.819Z,26.07
2022-08-05T05:19:16.490Z,26.13
2022-08-05T05:22:23.510Z,26.09
2022-08-05T05:25:40.457Z,25.99
2022-08-05T05:28:44.851Z,25.74
2022-08-05T05:31:48.364Z,25.80
2022-08-05T05:34:54.382Z,25.78
2022-08-05T05:38:01.564Z,26.01
2022-08-05T05:41:05.363Z,25.83
2022-08-05T05:44:35.559Z,25.71
2022-08-05T05:48:06.659Z,25.43
2022-08-05T05:50:59.249Z,25.52
2022-08-05T05:54:18.606Z,25.52
2022-08-05T05:57:22.942Z,25.83
2022-08-05T06:00:29.563Z,26.03
2022-08-05T06:03:54.217Z,25.88
2022-08-05T06:06:58.096Z,25.69
2022-08-05T06:10:10.166Z,25.56
2022-08-05T06:13:13.652Z,25.70
2022-08-05T06:16:28.359Z,25.68
2022-08-05T06:19:35.598Z,25.72
2022-08-05T06:22:40.479Z,25.69
2022-08-05T06:26:12.727Z,25.51
2022-08-05T06:29:25.145Z,25.58
2022-08-05T06:32:30.253Z,25.53
2022-08-05T06:36:06.907Z,25.40
2022-08-05T06:38:57.303Z,25.63
2022-08-05T06:42:04.179Z,25.78
2022-08-05T06:45:09.304Z,25.82
2022-08-05T06:48:50.409Z,25.68
2022-08-05T06:51:35.855Z,25.58
2022-08-05T06:54:43.867Z,25.41
2022-08-05T06:58:11.753Z,25.42
2022-08-05T07:01:20.841Z,25.52
2022-08-05T07:04:24.282Z,25.46
2022-08-05T07:07:43.340Z,25.53
2022-08-05T07:10:52.967Z,25.56
2022-08-05T07:13:59.760Z,25.57
2022-08-05T07:17:57.152Z,25.55
2022-08-05T07:20:37.104Z,25.17
2022-08-05T07:23:49.799Z,25.16
2022-08-05T07:26:53.664Z,25.45
2022-08-05T07:30:27.726Z,25.65
2022-08-05T07:33:36.635Z,25.75
2022-08-05T07:36:40.533Z,25.52
2022-08-05T07:40:26.285Z,25.12
2022-08-05T07:43:14.636Z,25.25
2022-08-05T07:46:27.622Z,25.24
2022-08-05T07:49:30.791Z,25.38
2022-08-05T07:52:39.826Z,25.08
2022-08-05T07:56:05.121Z,25.39
2022-08-05T07:59:08.473Z,25.41
2022-08-05T08:02:15.575Z,25.32
2022-08-05T08:05:20.455Z,25.30
2022-08-05T08:08:23.546Z,25.38
2022-08-05T08:11:47.458Z,25.42
2022-08-05T08:14:52.215Z,25.55
2022-08-05T08:17:55.355Z,25.24
2022-08-05T08:21:09.693Z,25.06
2022-08-05T08:24:18.983Z,25.05
2022-08-05T08:27:23.564Z,24.84
2022-08-05T08:30:47.973Z,24.80
2022-08-05T08:33:53.129Z,24.97
2022-08-05T08:37:03.135Z,25.20
2022-08-05T08:40:08.080Z,24.98
2022-08-05T08:45:21.420Z,25.19
2022-08-05T08:46:37.460Z,25.25
2022-08-05T08:50:13.194Z,25.37
2022-08-05T08:53:11.925Z,25.27
2022-08-05T08:56:15.534Z,24.87
2022-08-05T08:59:21.900Z,24.93
2022-08-05T09:02:30.983Z,25.16
2022-08-05T09:05:38.798Z,25.29
2022-08-05T09:09:00.070Z,25.23
2022-08-05T09:12:20.703Z,25.09
2022-08-05T09:15:37.174Z,25.09
2022-08-05T09:18:43.783Z,25.27
2022-08-05T09:22:22.531Z,25.37
2022-08-05T09:25:13.889Z,25.36
2022-08-05T09:28:32.135Z,25.04
2022-08-05T09:32:40.245Z,25.02
2022-08-05T09:34:59.329Z,24.93
2022-08-05T09:38:17.119Z,24.93
2022-08-05T09:41:21.652Z,25.12
2022-08-05T09:44:38.485Z,24.93
2022-08-05T09:47:55.351Z,24.85
2022-08-05T09:51:14.939Z,24.67
2022-08-05T09:54:30.806Z,24.75
2022-08-05T09:57:39.424Z,24.95
2022-08-05T10:01:14.738Z,24.92
2022-08-05T10:04:18.780Z,24.95
2022-08-05T10:08:36.552Z,25.02
2022-08-05T10:11:19.265Z,25.19
2022-08-05T10:14:28.563Z,25.01
2022-08-05T10:17:37.379Z,25.20
2022-08-05T10:20:47.660Z,25.14
2022-08-05T10:23:58.974Z,24.90
2022-08-05T10:27:03.584Z,25.06
2022-08-05T10:32:47.339Z,24.90
2022-08-05T10:33:36.113Z,24.81
2022-08-05T10:36:41.215Z,24.97
2022-08-05T10:39:59.290Z,24.53
2022-08-05T10:43:23.154Z,24.73
2022-08-05T10:46:46.088Z,24.93
2022-08-05T10:50:31.629Z,24.76
2022-08-05T10:53:45.986Z,24.73
2022-08-05T10:56:54.556Z,24.80
2022-08-05T11:00:20.267Z,24.72
2022-08-05T11:03:26.966Z,24.56
2022-08-05T11:06:31.336Z,24.77
2022-08-05T11:09:48.408Z,24.38
2022-08-05T11:12:55.292Z,24.65
2022-08-05T11:16:22.028Z,24.74
2022-08-05T11:20:10.030Z,24.74
2022-08-05T11:22:54.060Z,24.68
2022-08-05T11:26:28.031Z,24.67
2022-08-05T11:29:39.457Z,24.51
2022-08-05T11:32:42.550Z,24.63
2022-08-05T11:36:04.335Z,24.68
2022-08-05T11:39:12.551Z,24.68
2022-08-05T11:42:18.400Z,24.49
2022-08-05T11:46:15.610Z,24.43
2022-08-05T11:48:45.539Z,24.59
2022-08-05T11:51:51.021Z,24.64
2022-08-05T11:54:54.857Z,24.74
2022-08-05T11:58:09.444Z,24.90
2022-08-05T12:01:19.813Z,25.06
2022-08-05T12:04:23.740Z,25.02
2022-08-05T12:08:07.309Z,25.32
2022-08-05T12:11:00.030Z,25.44
2022-08-05T12:14:10.360Z,25.30
2022-08-05T12:18:04.341Z,25.38
2022-08-05T12:20:38.326Z,24.64
2022-08-05T12:23:43.097Z,24.74
2022-08-05T12:26:47.994Z,24.86
2022-08-05T12:30:09.268Z,25.13
2022-08-05T12:33:27.234Z,24.67
2022-08-05T12:36:33.588Z,24.80
2022-08-05T12:39:41.239Z,24.86
2022-08-05T12:42:44.455Z,24.91
2022-08-05T12:45:55.836Z,25.32
2022-08-05T12:49:12.986Z,25.36
2022-08-05T12:52:25.341Z,25.29
2022-08-05T12:55:35.365Z,25.28
2022-08-05T12:58:53.899Z,25.52
2022-08-05T13:02:07.780Z,25.55
2022-08-05T13:05:14.571Z,25.70
2022-08-05T13:08:26.973Z,25.72
2022-08-05T13:12:01.416Z,25.41
2022-08-05T13:14:59.233Z,25.24
2022-08-05T13:18:09.972Z,25.55
2022-08-05T13:21:15.649Z,25.89
2022-08-05T13:24:27.656Z,25.79
2022-08-05T13:27:50.240Z,25.49
2022-08-05T13:30:55.644Z,25.84
2022-08-05T13:34:24.262Z,25.68
2022-08-05T13:37:34.502Z,26.16
2022-08-05T13:40:49.938Z,26.27
2022-08-05T13:43:56.059Z,26.46
2022-08-05T13:47:04.583Z,26.02
2022-08-05T13:50:16.483Z,26.05
2022-08-05T13:53:20.991Z,26.29
2022-08-05T13:56:26.128Z,26.36
2022-08-05T13:59:31.259Z,26.91
2022-08-05T14:02:34.971Z,26.62
2022-08-05T14:06:24.479Z,26.95
2022-08-05T14:09:01.714Z,27.02
2022-08-05T14:12:18.194Z,27.14
2022-08-05T14:16:06.347Z,27.71
2022-08-05T14:18:58.541Z,27.38
2022-08-05T14:22:11.433Z,27.39
2022-08-05T14:25:21.959Z,28.06
2022-08-05T14:28:26.195Z,28.60
2022-08-05T14:32:03.183Z,27.74
2022-08-05T14:34:54.734Z,28.10
2022-08-05T14:38:01.120Z,28.13
2022-08-05T14:41:07.550Z,27.87
2022-08-05T14:44:20.193Z,27.88
2022-08-05T14:48:03.474Z,28.47
2022-08-05T14:50:48.234Z,28.07
2022-08-05T14:54:28.817Z,28.43
2022-08-05T14:57:15.922Z,29.29
2022-08-05T15:00:20.323Z,28.94
2022-08-05T15:03:33.092Z,28.45
2022-08-05T15:06:37.736Z,28.97
2022-08-05T15:09:51.305Z,29.68
2022-08-05T15:13:03.253Z,29.43
2022-08-05T15:16:07.601Z,29.74
2022-08-05T15:19:23.874Z,30.23
2022-08-05T15:22:28.173Z,30.75
2022-08-05T15:25:52.772Z,30.31
2022-08-05T15:28:54.939Z,29.97
2022-08-05T15:32:03.299Z,30.53
2022-08-05T15:35:10.854Z,30.24
2022-08-05T15:38:35.720Z,30.18
2022-08-05T15:41:56.247Z,30.14
2022-08-05T15:45:04.104Z,30.91
2022-08-05T15:48:09.260Z,30.74
2022-08-05T15:51:17.302Z,31.23
2022-08-05T15:54:21.427Z,30.80
2022-08-05T15:57:39.326Z,30.12
2022-08-05T16:01:03.571Z,30.50
2022-08-05T16:04:06.547Z,30.84
2022-08-05T16:07:13.520Z,30.45
2022-08-05T16:10:16.619Z,30.44
2022-08-05T16:13:32.074Z,31.00
2022-08-05T16:16:37.743Z,30.59
2022-08-05T16:20:04.287Z,30.90
2022-08-05T16:23:04.083Z,31.17
2022-08-05T16:26:11.160Z,32.12
2022-08-05T16:29:15.820Z,31.77
2022-08-05T16:32:29.415Z,31.83
2022-08-05T16:35:41.969Z,31.30
2022-08-05T16:38:45.876Z,31.63
2022-08-05T16:42:14.043Z,30.81
2022-08-05T16:46:07.275Z,31.39
2022-08-05T16:48:43.299Z,31.73
2022-08-05T16:51:51.000Z,31.36
2022-08-05T16:55:01.475Z,31.21
2022-08-05T16:58:08.615Z,31.34
2022-08-05T17:01:12.301Z,30.94
2022-08-05T17:04:15.478Z,30.78
2022-08-05T17:07:38.997Z,30.90
2022-08-05T17:10:43.805Z,31.63
2022-08-05T17:13:47.056Z,31.68
2022-08-05T17:16:50.384Z,32.29
2022-08-05T17:19:56.996Z,32.79
2022-08-05T17:23:00.275Z,33.29
2022-08-05T17:26:03.341Z,32.26
2022-08-05T17:29:09.886Z,31.96
2022-08-05T17:32:17.268Z,32.17
2022-08-05T17:35:21.171Z,31.37
2022-08-05T17:38:24.252Z,31.50
2022-08-05T17:42:17.669Z,31.70
2022-08-05T17:44:51.380Z,31.35
2022-08-05T17:47:56.433Z,31.23
2022-08-05T17:50:59.525Z,31.53
2022-08-05T17:54:04.943Z,31.29
2022-08-05T17:57:12.372Z,31.68
2022-08-05T18:00:15.869Z,32.35
2022-08-05T18:03:56.464Z,32.83
2022-08-05T18:06:43.119Z,32.86
2022-08-05T18:09:59.415Z,33.27
2022-08-05T18:13:07.678Z,32.98
2022-08-05T18:16:15.690Z,33.86
2022-08-05T18:19:26.019Z,33.58
2022-08-05T18:22:36.244Z,34.56
2022-08-05T18:25:49.161Z,32.40
2022-08-05T18:29:03.262Z,32.80
2022-08-05T18:32:07.013Z,32.59
2022-08-05T18:35:18.564Z,33.22
2022-08-05T18:38:31.385Z,34.14
2022-08-05T18:41:56.288Z,33.83
2022-08-05T18:44:57.600Z,33.26
2022-08-05T18:48:04.109Z,33.21
2022-08-05T18:52:04.323Z,32.77
2022-08-05T18:54:31.771Z,32.95
2022-08-05T18:57:43.347Z,33.22
2022-08-05T19:00:56.283Z,33.54
2022-08-05T19:04:01.431Z,33.06
2022-08-05T19:07:08.728Z,33.26
2022-08-05T19:10:12.116Z,33.12
2022-08-05T19:13:15.971Z,33.46
2022-08-05T19:16:25.423Z,34.01
2022-08-05T19:19:35.200Z,34.08
2022-08-05T19:22:39.908Z,34.12
2022-08-05T19:25:43.625Z,34.51
2022-08-05T19:28:47.611Z,33.63
2022-08-05T19:31:51.475Z,33.34
2022-08-05T19:34:55.803Z,33.31
2022-08-05T19:38:06.289Z,33.09
2022-08-05T19:41:12.181Z,33.74
2022-08-05T19:44:19.078Z,33.44
2022-08-05T19:47:22.500Z,33.35
2022-08-05T19:50:26.617Z,33.22
2022-08-05T19:54:05.255Z,33.23
2022-08-05T19:56:54.908Z,33.94
2022-08-05T20:00:02.629Z,33.77
2022-08-05T20:03:09.120Z,33.55
2022-08-05T20:06:15.891Z,33.28
2022-08-05T20:09:29.942Z,33.66
2022-08-05T20:12:53.539Z,32.66
2022-08-05T20:15:56.911Z,33.08
2022-08-05T20:19:01.102Z,33.56
2022-08-05T20:22:04.931Z,33.79
2022-08-05T20:25:10.660Z,33.85
2022-08-05T20:28:14.832Z,33.16
2022-08-05T20:31:21.547Z,33.26
2022-08-05T20:34:26.110Z,33.49
2022-08-05T20:38:06.035Z,33.59
2022-08-05T20:40:57.843Z,33.36
2022-08-05T20:44:07.159Z,32.88
2022-08-05T20:47:32.386Z,33.26
2022-08-05T20:50:37.741Z,33.26
2022-08-05T20:53:56.328Z,33.06
2022-08-05T20:57:00.681Z,32.99
2022-08-05T21:00:20.787Z,33.49
2022-08-05T21:03:34.684Z,33.41
2022-08-05T21:06:45.153Z,33.31
2022-08-05T21:09:50.116Z,33.51
2022-08-05T21:13:08.181Z,33.48
2022-08-05T21:16:12.233Z,33.64
2022-08-05T21:19:15.294Z,33.65
2022-08-05T21:22:21.845Z,33.19
2022-08-05T21:25:33.913Z,32.97
2022-08-05T21:28:37.646Z,33.19
2022-08-05T21:31:41.960Z,33.57
2022-08-05T21:34:45.102Z,33.49
2022-08-05T21:38:08.149Z,33.06
2022-08-05T21:41:12.066Z,32.93
2022-08-05T21:44:27.064Z,33.02
2022-08-05T21:47:54.984Z,33.13
2022-08-05T21:50:54.580Z,33.10
2022-08-05T21:54:03.884Z,33.05
2022-08-05T21:57:30.927Z,32.73
2022-08-05T22:00:30.509Z,33.18
2022-08-05T22:03:48.896Z,33.26
2022-08-05T22:06:57.018Z,33.61
2022-08-05T22:10:00.422Z,33.41
2022-08-05T22:13:58.854Z,33.22
2022-08-05T22:16:42.064Z,33.46
2022-08-05T22:19:57.535Z,33.09
2022-08-05T22:23:17.077Z,33.26
2022-08-05T22:26:24.301Z,33.38
2022-08-05T22:29:30.670Z,33.40
2022-08-05T22:32:36.151Z,33.19
2022-08-05T22:35:49.275Z,32.80
2022-08-05T22:38:53.731Z,32.68
2022-08-05T22:42:09.493Z,31.59
2022-08-05T22:45:14.091Z,31.54
2022-08-05T22:48:22.030Z,30.02
2022-08-05T22:52:06.019Z,28.50
2022-08-05T22:54:54.541Z,27.55
2022-08-05T22:57:58.291Z,26.85
2022-08-05T23:01:01.388Z,27.45
2022-08-05T23:04:05.064Z,27.75
2022-08-05T23:07:10.010Z,27.85
2022-08-05T23:10:19.975Z,27.85
2022-08-05T23:13:23.801Z,27.76
2022-08-05T23:16:33.708Z,27.73
2022-08-05T23:19:41.942Z,27.71
2022-08-05T23:22:56.096Z,27.82
2022-08-05T23:26:01.779Z,27.99
2022-08-05T23:29:09.827Z,27.36
2022-08-05T23:32:22.675Z,27.62
2022-08-05T23:35:28.639Z,27.74
2022-08-05T23:38:37.493Z,27.67
2022-08-05T23:41:41.035Z,27.55
2022-08-05T23:44:54.495Z,27.44
2022-08-05T23:47:59.515Z,27.69
2022-08-05T23:51:07.561Z,27.65
2022-08-05T23:54:10.844Z,27.51
2022-08-05T23:57:15.533Z,27.53
